createdAt,value
2022-12-12T00:00:26.648Z,138.35
2022-12-12T00:02:58.275Z,148.25
2022-12-12T00:05:28.498Z,147.90
2022-12-12T00:07:58.880Z,165.55
2022-12-12T00:10:28.566Z,169.07
2022-12-12T00:12:58.157Z,161.57
2022-12-12T00:15:29.061Z,151.70
2022-12-12T00:17:58.814Z,157.60
2022-12-12T00:20:28.470Z,162.40
2022-12-12T00:22:58.058Z,173.48
2022-12-12T00:25:27.658Z,158.25
2022-12-12T00:27:57.251Z,166.10
2022-12-12T00:30:26.957Z,163.07
2022-12-12T00:32:56.510Z,153.93
2022-12-12T00:35:26.423Z,157.10
2022-12-12T00:37:56.025Z,149.60
2022-12-12T00:40:25.686Z,142.80
2022-12-12T00:42:55.301Z,144.30
2022-12-12T00:45:24.586Z,147.68
2022-12-12T00:47:54.501Z,157.50
2022-12-12T00:50:24.045Z,140.77
2022-12-12T00:52:53.747Z,139.20
2022-12-12T00:55:23.406Z,140.90
2022-12-12T00:57:53.299Z,127.65
2022-12-12T01:00:24.006Z,126.43
2022-12-12T01:02:53.886Z,117.85
2022-12-12T01:05:24.331Z,128.60
2022-12-12T01:07:55.150Z,132.23
2022-12-12T01:10:25.113Z,125.68
2022-12-12T01:12:54.830Z,124.90
2022-12-12T01:15:24.390Z,98.20
2022-12-12T01:17:55.025Z,121.03
2022-12-12T01:20:29.070Z,118.05
2022-12-12T01:22:59.260Z,134.73
2022-12-12T01:25:28.732Z,144.60
2022-12-12T01:27:58.223Z,134.63
2022-12-12T01:30:31.026Z,141.32
2022-12-12T01:33:00.685Z,128.63
2022-12-12T01:35:31.966Z,145.68
2022-12-12T01:38:01.999Z,134.07
2022-12-12T01:40:32.970Z,129.93
2022-12-12T01:43:02.529Z,108.28
2022-12-12T01:46:13.683Z,120.63
2022-12-12T01:49:02.129Z,119.57
2022-12-12T01:51:32.623Z,111.38
2022-12-12T01:54:17.243Z,99.32
2022-12-12T01:56:52.347Z,108.40
2022-12-12T01:59:24.057Z,126.35
2022-12-12T02:01:55.320Z,115.28
2022-12-12T02:04:27.137Z,118.47
2022-12-12T02:06:57.889Z,125.28
2022-12-12T02:09:31.035Z,107.90
2022-12-12T02:12:00.795Z,108.05
2022-12-12T02:14:53.403Z,106.70
2022-12-12T02:17:52.699Z,107.63
2022-12-12T02:20:37.069Z,117.05
2022-12-12T02:23:32.511Z,108.20
2022-12-12T02:26:09.416Z,149.77
2022-12-12T02:29:06.716Z,141.68
2022-12-12T02:31:42.364Z,138.30
2022-12-12T02:34:27.846Z,235.25
2022-12-12T02:37:00.928Z,277.17
2022-12-12T02:40:20.921Z,182.23
2022-12-12T02:43:13.833Z,380.90
2022-12-12T02:45:47.127Z,342.92
2022-12-12T02:48:30.737Z,542.72
2022-12-12T02:51:04.372Z,194.20
2022-12-12T02:53:34.765Z,187.48
2022-12-12T02:56:07.648Z,184.73
2022-12-12T02:58:40.466Z,175.10
2022-12-12T03:01:40.937Z,220.57
2022-12-12T03:04:54.500Z,325.00
2022-12-12T03:07:49.277Z,374.95
2022-12-12T03:10:28.085Z,251.75
2022-12-12T03:13:19.767Z,171.55
2022-12-12T03:16:15.949Z,149.35
2022-12-12T03:18:57.436Z,147.70
2022-12-12T03:22:25.710Z,135.43
2022-12-12T03:25:05.550Z,102.53
2022-12-12T03:27:55.902Z,113.10
2022-12-12T03:30:25.905Z,123.65
2022-12-12T03:33:08.585Z,104.72
2022-12-12T03:38:15.723Z,113.70
2022-12-12T03:40:50.532Z,123.60
2022-12-12T03:43:33.632Z,128.82
2022-12-12T03:46:23.704Z,108.38
2022-12-12T03:49:03.051Z,101.18
2022-12-12T03:51:37.965Z,84.25
2022-12-12T03:54:54.994Z,83.35
2022-12-12T03:57:34.377Z,66.85
2022-12-12T04:00:08.940Z,77.95
2022-12-12T04:03:03.336Z,65.95
2022-12-12T04:06:26.728Z,72.68
2022-12-12T04:09:23.299Z,67.57
2022-12-12T04:12:18.065Z,78.15
2022-12-12T04:15:06.046Z,77.55
2022-12-12T04:17:58.662Z,78.20
2022-12-12T04:20:55.359Z,86.57
2022-12-12T04:23:35.911Z,89.10
2022-12-12T04:26:29.721Z,111.00
2022-12-12T04:29:31.451Z,148.20
2022-12-12T04:32:15.513Z,115.45
2022-12-12T04:35:03.461Z,81.45
2022-12-12T04:37:40.596Z,126.07
2022-12-12T04:40:14.570Z,66.68
2022-12-12T04:42:55.108Z,63.90
2022-12-12T04:45:30.522Z,66.93
2022-12-12T04:48:02.728Z,73.65
2022-12-12T04:50:34.676Z,65.90
2022-12-12T04:53:18.411Z,54.63
2022-12-12T04:55:58.148Z,64.25
2022-12-12T04:58:29.111Z,66.75
2022-12-12T05:01:08.864Z,55.60
2022-12-12T05:03:44.941Z,57.97
2022-12-12T05:06:18.103Z,61.97
2022-12-12T05:08:55.004Z,59.50
2022-12-12T05:11:24.897Z,54.55
2022-12-12T05:13:54.714Z,65.07
2022-12-12T05:16:44.872Z,56.75
2022-12-12T05:19:15.146Z,65.85
2022-12-12T05:21:44.872Z,72.38
2022-12-12T05:24:14.481Z,58.22
2022-12-12T05:26:44.380Z,57.13
2022-12-12T05:29:14.882Z,66.10
2022-12-12T05:31:44.693Z,53.75
2022-12-12T05:34:14.016Z,64.82
2022-12-12T05:36:44.369Z,69.22
2022-12-12T05:39:13.932Z,67.32
2022-12-12T05:41:43.916Z,55.90
2022-12-12T05:44:13.283Z,62.58
2022-12-12T05:46:42.971Z,66.22
2022-12-12T05:49:12.615Z,65.25
2022-12-12T05:51:44.323Z,65.90
2022-12-12T05:54:15.329Z,66.45
2022-12-12T05:56:45.307Z,57.78
2022-12-12T05:59:16.223Z,54.35
2022-12-12T06:01:46.466Z,42.40
2022-12-12T06:04:17.087Z,53.28
2022-12-12T06:06:48.315Z,49.15
2022-12-12T06:09:17.967Z,50.78
2022-12-12T06:11:47.650Z,65.97
2022-12-12T06:14:17.858Z,65.00
2022-12-12T06:16:47.505Z,57.90
2022-12-12T06:19:17.306Z,57.35
2022-12-12T06:21:47.873Z,53.45
2022-12-12T06:24:18.340Z,73.97
2022-12-12T06:26:52.428Z,66.25
2022-12-12T06:29:22.585Z,68.45
2022-12-12T06:31:52.323Z,65.60
2022-12-12T06:34:21.977Z,62.53
2022-12-12T06:36:51.774Z,119.47
2022-12-12T06:39:21.518Z,52.85
2022-12-12T06:41:51.174Z,97.85
2022-12-12T06:44:20.802Z,56.13
2022-12-12T06:46:50.450Z,65.05
2022-12-12T06:49:20.509Z,53.10
2022-12-12T06:51:50.341Z,54.40
2022-12-12T06:54:20.894Z,52.67
2022-12-12T06:56:50.764Z,53.85
2022-12-12T06:59:20.927Z,47.35
2022-12-12T07:01:50.855Z,44.08
2022-12-12T07:04:21.757Z,91.15
2022-12-12T07:06:51.802Z,50.80
2022-12-12T07:09:22.151Z,53.03
2022-12-12T07:11:51.886Z,46.38
2022-12-12T07:14:24.557Z,47.05
2022-12-12T07:16:54.248Z,45.00
2022-12-12T07:19:24.448Z,53.20
2022-12-12T07:21:54.210Z,52.65
2022-12-12T07:24:23.813Z,47.00
2022-12-12T07:26:53.933Z,48.65
2022-12-12T07:29:23.715Z,65.65
2022-12-12T07:31:53.060Z,41.15
2022-12-12T07:34:24.730Z,50.88
2022-12-12T07:37:00.791Z,53.38
2022-12-12T07:42:35.754Z,60.67
2022-12-12T07:45:05.824Z,50.10
2022-12-12T07:47:36.253Z,45.22
2022-12-12T07:50:07.812Z,47.10
2022-12-12T07:52:38.545Z,36.17
2022-12-12T07:55:08.834Z,44.45
2022-12-12T07:57:39.305Z,81.93
2022-12-12T08:00:11.923Z,60.25
2022-12-12T08:02:42.684Z,40.25
2022-12-12T08:05:12.948Z,35.72
2022-12-12T08:07:43.764Z,43.97
2022-12-12T08:10:13.449Z,36.08
2022-12-12T08:12:43.020Z,38.80
2022-12-12T08:15:18.564Z,39.33
2022-12-12T08:17:49.047Z,36.70
2022-12-12T08:20:18.926Z,41.40
2022-12-12T08:22:48.558Z,32.80
2022-12-12T08:25:18.966Z,43.05
2022-12-12T08:27:48.640Z,58.88
2022-12-12T08:30:18.048Z,49.63
2022-12-12T08:32:47.950Z,53.85
2022-12-12T08:35:17.857Z,35.63
2022-12-12T08:37:47.611Z,46.17
2022-12-12T08:40:17.595Z,36.13
2022-12-12T08:42:47.697Z,44.03
2022-12-12T08:45:18.151Z,54.92
2022-12-12T08:47:48.043Z,54.15
2022-12-12T08:50:18.628Z,53.08
2022-12-12T08:52:48.316Z,49.42
2022-12-12T08:55:19.092Z,37.17
2022-12-12T08:57:49.241Z,53.88
2022-12-12T09:00:19.509Z,36.28
2022-12-12T09:02:49.356Z,36.95
2022-12-12T09:05:19.145Z,56.95
2022-12-12T09:07:49.124Z,59.88
2022-12-12T09:10:19.592Z,42.90
2022-12-12T09:12:49.747Z,42.75
2022-12-12T09:15:20.026Z,51.88
2022-12-12T09:17:49.863Z,51.55
2022-12-12T09:20:19.942Z,60.42
2022-12-12T09:22:49.830Z,46.85
2022-12-12T09:25:20.357Z,61.90
2022-12-12T09:27:50.941Z,62.10
2022-12-12T09:30:20.789Z,42.67
2022-12-12T09:32:51.133Z,40.15
2022-12-12T09:35:20.943Z,25.42
2022-12-12T09:37:50.853Z,27.48
2022-12-12T09:40:27.199Z,46.42
2022-12-12T09:42:57.664Z,30.27
2022-12-12T09:45:28.770Z,47.03
2022-12-12T09:48:04.324Z,34.28
2022-12-12T09:50:37.093Z,29.52
2022-12-12T09:53:15.399Z,38.80
2022-12-12T09:56:23.342Z,31.23
2022-12-12T09:58:57.268Z,33.10
2022-12-12T10:01:47.439Z,37.67
2022-12-12T10:04:41.881Z,31.23
2022-12-12T10:07:16.171Z,20.42
2022-12-12T10:09:53.824Z,27.40
2022-12-12T10:12:24.689Z,24.70
2022-12-12T10:15:03.347Z,38.20
2022-12-12T10:17:37.720Z,50.92
2022-12-12T10:20:30.468Z,37.45
2022-12-12T10:23:06.748Z,41.63
2022-12-12T10:25:53.846Z,35.10
2022-12-12T10:28:26.790Z,36.65
2022-12-12T10:31:15.123Z,36.58
2022-12-12T10:33:44.908Z,43.97
2022-12-12T10:36:24.574Z,38.55
2022-12-12T10:38:54.396Z,57.00
2022-12-12T10:41:41.936Z,41.13
2022-12-12T10:44:47.001Z,58.80
2022-12-12T10:47:17.676Z,34.40
2022-12-12T10:49:47.122Z,34.63
2022-12-12T10:52:23.805Z,32.67
2022-12-12T10:54:59.569Z,32.10
2022-12-12T10:57:35.795Z,63.95
2022-12-12T11:00:20.075Z,57.83
2022-12-12T11:02:50.559Z,38.85
2022-12-12T11:05:36.908Z,58.78
2022-12-12T11:08:31.562Z,62.88
2022-12-12T11:11:06.898Z,63.58
2022-12-12T11:13:48.820Z,75.57
2022-12-12T11:16:30.178Z,56.38
2022-12-12T11:19:09.234Z,84.10
2022-12-12T11:21:40.583Z,68.78
2022-12-12T11:24:16.180Z,60.60
2022-12-12T11:27:07.852Z,79.72
2022-12-12T11:29:51.826Z,87.13
2022-12-12T11:32:27.507Z,71.85
2022-12-12T11:35:22.932Z,82.75
2022-12-12T11:38:18.871Z,85.45
2022-12-12T11:41:10.979Z,73.13
2022-12-12T11:43:51.179Z,72.75
2022-12-12T11:46:26.083Z,65.22
2022-12-12T11:48:55.755Z,64.70
2022-12-12T11:51:39.617Z,56.42
2022-12-12T11:54:14.797Z,60.45
2022-12-12T11:56:52.335Z,99.55
2022-12-12T11:59:46.367Z,64.05
2022-12-12T12:02:51.789Z,76.25
2022-12-12T12:05:33.317Z,56.88
2022-12-12T12:08:32.974Z,51.28
2022-12-12T12:11:03.028Z,67.15
2022-12-12T12:13:53.069Z,53.78
2022-12-12T12:16:50.371Z,61.17
2022-12-12T12:19:49.038Z,64.22
2022-12-12T12:22:27.475Z,78.70
2022-12-12T12:25:09.359Z,89.75
2022-12-12T12:28:05.273Z,95.90
2022-12-12T12:31:10.560Z,108.95
2022-12-12T12:33:55.933Z,103.22
2022-12-12T12:36:41.642Z,117.47
2022-12-12T12:39:30.067Z,120.43
2022-12-12T12:42:11.222Z,132.98
2022-12-12T12:44:56.999Z,123.13
2022-12-12T12:47:29.896Z,94.47
2022-12-12T12:50:30.344Z,102.82
2022-12-12T12:53:18.567Z,113.15
2022-12-12T12:55:52.557Z,91.55
2022-12-12T12:58:32.770Z,99.63
2022-12-12T13:01:08.299Z,109.72
2022-12-12T13:03:49.699Z,97.28
2022-12-12T13:06:45.960Z,102.35
2022-12-12T13:09:37.342Z,100.97
2022-12-12T13:12:45.225Z,103.57
2022-12-12T13:15:42.466Z,97.50
2022-12-12T13:18:18.055Z,102.32
2022-12-12T13:21:22.141Z,130.50
2022-12-12T13:24:19.222Z,125.40
2022-12-12T13:27:24.078Z,120.13
2022-12-12T13:30:08.356Z,117.32
2022-12-12T13:32:55.216Z,125.57
2022-12-12T13:35:35.219Z,159.55
2022-12-12T13:38:06.355Z,144.77
2022-12-12T13:40:44.822Z,137.30
2022-12-12T13:43:47.945Z,138.35
2022-12-12T13:46:21.765Z,122.78
2022-12-12T13:49:15.595Z,124.43
2022-12-12T13:51:46.901Z,104.45
2022-12-12T13:54:16.813Z,120.22
2022-12-12T13:57:08.250Z,105.30
2022-12-12T13:59:57.840Z,210.63
2022-12-12T14:02:34.304Z,128.18
2022-12-12T14:05:11.919Z,103.20
2022-12-12T14:07:53.688Z,95.32
2022-12-12T14:10:41.135Z,98.93
2022-12-12T14:13:29.398Z,106.32
2022-12-12T14:16:16.923Z,92.03
2022-12-12T14:18:52.811Z,105.28
2022-12-12T14:21:37.256Z,88.80
2022-12-12T14:24:32.542Z,164.50
2022-12-12T14:27:07.138Z,119.00
2022-12-12T14:29:45.021Z,119.97
2022-12-12T14:32:17.507Z,82.00
2022-12-12T14:35:11.469Z,126.70
2022-12-12T14:37:53.236Z,116.47
2022-12-12T14:40:40.964Z,128.10
2022-12-12T14:43:23.669Z,150.00
2022-12-12T14:45:53.461Z,180.50
2022-12-12T14:48:34.379Z,194.43
2022-12-12T14:51:30.170Z,206.63
2022-12-12T14:54:01.846Z,156.55
2022-12-12T14:56:52.581Z,160.48
2022-12-12T14:59:25.067Z,170.95
2022-12-12T15:01:58.487Z,132.27
2022-12-12T15:04:30.149Z,128.57
2022-12-12T15:07:01.337Z,141.43
2022-12-12T15:09:39.913Z,118.28
2022-12-12T15:12:12.784Z,107.30
2022-12-12T15:15:02.771Z,126.88
2022-12-12T15:17:38.189Z,133.52
2022-12-12T15:20:16.821Z,143.60
2022-12-12T15:23:03.674Z,171.98
2022-12-12T15:25:56.907Z,175.00
2022-12-12T15:28:27.888Z,231.77
2022-12-12T15:30:58.264Z,249.38
2022-12-12T15:33:30.031Z,229.48
2022-12-12T15:36:08.409Z,239.95
2022-12-12T15:38:39.289Z,281.95
2022-12-12T15:41:13.773Z,286.35
2022-12-12T15:43:45.908Z,290.35
2022-12-12T15:46:18.564Z,255.05
2022-12-12T15:48:51.131Z,279.80
2022-12-12T15:51:25.334Z,233.82
2022-12-12T15:53:57.991Z,238.57
2022-12-12T15:56:32.253Z,232.80
2022-12-12T15:59:11.099Z,238.38
2022-12-12T16:01:41.557Z,243.75
2022-12-12T16:04:11.550Z,275.25
2022-12-12T16:06:47.704Z,257.35
2022-12-12T16:09:26.597Z,269.55
2022-12-12T16:11:58.449Z,281.05
2022-12-12T16:14:42.073Z,324.67
2022-12-12T16:17:26.620Z,375.70
2022-12-12T16:20:01.764Z,321.42
2022-12-12T16:22:43.940Z,329.38
2022-12-12T16:25:28.058Z,313.42
2022-12-12T16:28:07.252Z,314.92
2022-12-12T16:30:39.430Z,332.35
2022-12-12T16:33:24.285Z,340.67
2022-12-12T16:35:54.869Z,342.85
2022-12-12T16:38:25.555Z,352.65
2022-12-12T16:40:57.117Z,348.83
2022-12-12T16:43:30.570Z,334.55
2022-12-12T16:46:02.041Z,325.25
2022-12-12T16:48:43.275Z,296.73
2022-12-12T16:51:20.210Z,258.15
2022-12-12T16:53:50.638Z,237.20
2022-12-12T16:56:22.872Z,213.05
2022-12-12T16:58:54.790Z,179.52
2022-12-12T17:01:28.057Z,169.10
2022-12-12T17:03:59.207Z,160.13
2022-12-12T17:06:30.040Z,181.68
2022-12-12T17:09:00.215Z,208.75
2022-12-12T17:11:30.077Z,228.90
2022-12-12T17:14:00.115Z,235.50
2022-12-12T17:16:29.784Z,253.90
2022-12-12T17:18:59.779Z,283.45
2022-12-12T17:21:29.371Z,293.80
2022-12-12T17:23:59.131Z,330.33
2022-12-12T17:26:29.064Z,375.88
2022-12-12T17:28:58.736Z,394.20
2022-12-12T17:31:28.354Z,388.45
2022-12-12T17:33:58.239Z,382.35
2022-12-12T17:36:27.880Z,360.48
2022-12-12T17:38:59.031Z,340.33
2022-12-12T17:41:29.315Z,335.42
2022-12-12T17:44:01.212Z,325.75
2022-12-12T17:46:31.693Z,307.98
2022-12-12T17:49:03.395Z,298.27
2022-12-12T17:51:34.071Z,262.17
2022-12-12T17:54:04.762Z,239.13
2022-12-12T17:56:35.407Z,205.70
2022-12-12T17:59:08.378Z,214.00
2022-12-12T18:01:39.494Z,233.18
2022-12-12T18:04:10.179Z,223.75
2022-12-12T18:06:40.872Z,176.55
2022-12-12T18:09:10.669Z,166.50
2022-12-12T18:11:43.295Z,136.77
2022-12-12T18:14:20.247Z,160.57
2022-12-12T18:16:52.576Z,150.45
2022-12-12T18:19:26.986Z,160.60
2022-12-12T18:22:01.201Z,190.40
2022-12-12T18:24:33.696Z,202.15
2022-12-12T18:27:04.995Z,189.95
2022-12-12T18:29:34.751Z,171.90
2022-12-12T18:32:06.105Z,167.27
2022-12-12T18:34:35.934Z,176.00
2022-12-12T18:37:05.308Z,185.50
2022-12-12T18:39:35.157Z,164.32
2022-12-12T18:42:04.671Z,166.45
2022-12-12T18:44:34.645Z,161.52
2022-12-12T18:47:04.308Z,173.48
2022-12-12T18:49:33.617Z,163.00
2022-12-12T18:52:05.833Z,164.65
2022-12-12T18:54:35.518Z,168.07
2022-12-12T18:57:04.974Z,168.85
2022-12-12T18:59:35.000Z,163.75
2022-12-12T19:02:04.882Z,153.35
2022-12-12T19:04:34.947Z,155.57
2022-12-12T19:07:04.569Z,177.07
2022-12-12T19:09:34.210Z,173.75
2022-12-12T19:12:04.088Z,158.60
2022-12-12T19:14:59.856Z,158.80
2022-12-12T19:17:26.419Z,154.02
2022-12-12T19:19:56.444Z,144.73
2022-12-12T19:25:18.599Z,129.25
2022-12-12T19:27:48.799Z,112.03
2022-12-12T19:30:18.899Z,114.45
2022-12-12T19:32:50.270Z,121.55
2022-12-12T19:35:20.006Z,107.57
2022-12-12T19:37:49.709Z,99.50
2022-12-12T19:40:20.033Z,110.30
2022-12-12T19:42:49.904Z,110.85
2022-12-12T19:45:19.643Z,116.57
2022-12-12T19:47:48.946Z,100.80
2022-12-12T19:50:18.835Z,99.15
2022-12-12T19:52:48.369Z,96.70
2022-12-12T19:55:18.016Z,109.38
2022-12-12T19:57:47.670Z,100.75
2022-12-12T20:00:20.872Z,106.13
2022-12-12T20:02:50.802Z,110.80
2022-12-12T20:05:20.731Z,112.22
2022-12-12T20:07:50.624Z,125.80
2022-12-12T20:10:20.211Z,128.38
2022-12-12T20:12:58.267Z,142.48
2022-12-12T20:15:28.651Z,154.93
2022-12-12T20:18:01.268Z,146.82
2022-12-12T20:20:31.100Z,158.68
2022-12-12T20:23:00.879Z,179.32
2022-12-12T20:25:30.716Z,148.57
2022-12-12T20:28:00.606Z,149.27
2022-12-12T20:30:30.305Z,151.57
2022-12-12T20:32:59.969Z,113.60
2022-12-12T20:35:30.450Z,119.82
2022-12-12T20:38:00.207Z,94.40
2022-12-12T20:40:30.318Z,100.97
2022-12-12T20:43:03.417Z,89.55
2022-12-12T20:45:36.793Z,82.85
2022-12-12T20:48:07.840Z,88.90
2022-12-12T20:50:37.721Z,62.88
2022-12-12T20:53:07.400Z,74.90
2022-12-12T20:55:38.368Z,60.00
2022-12-12T20:58:08.098Z,69.90
2022-12-12T21:00:40.188Z,77.18
2022-12-12T21:03:09.881Z,73.85
2022-12-12T21:05:39.902Z,74.47
2022-12-12T21:08:09.616Z,66.10
2022-12-12T21:10:39.018Z,78.00
2022-12-12T21:13:08.805Z,69.70
2022-12-12T21:15:38.880Z,59.05
2022-12-12T21:18:08.881Z,67.55
2022-12-12T21:20:38.555Z,75.03
2022-12-12T21:23:08.209Z,75.80
2022-12-12T21:25:38.346Z,65.43
2022-12-12T21:28:08.576Z,61.45
2022-12-12T21:30:38.365Z,59.03
2022-12-12T21:33:07.998Z,71.90
2022-12-12T21:35:38.711Z,88.60
2022-12-12T21:38:08.605Z,77.72
2022-12-12T21:40:38.637Z,101.72
2022-12-12T21:43:08.262Z,108.72
2022-12-12T21:45:41.308Z,99.10
2022-12-12T21:48:10.979Z,103.15
2022-12-12T21:50:40.372Z,92.18
2022-12-12T21:53:28.533Z,103.63
2022-12-12T21:56:03.906Z,121.25
2022-12-12T21:58:34.835Z,113.22
2022-12-12T22:01:08.989Z,99.95
2022-12-12T22:03:39.471Z,88.57
2022-12-12T22:06:14.796Z,121.75
2022-12-12T22:08:45.322Z,109.50
2022-12-12T22:11:40.485Z,104.63
2022-12-12T22:14:08.059Z,84.80
2022-12-12T22:16:39.070Z,100.60
2022-12-12T22:19:12.878Z,88.68
2022-12-12T22:21:42.499Z,92.03
2022-12-12T22:24:13.153Z,78.82
2022-12-12T22:26:47.178Z,93.03
2022-12-12T22:29:19.966Z,87.38
2022-12-12T22:31:53.365Z,92.40
2022-12-12T22:34:25.184Z,80.97
2022-12-12T22:36:55.396Z,55.55
2022-12-12T22:39:29.808Z,80.05
2022-12-12T22:41:59.476Z,59.75
2022-12-12T22:44:28.955Z,58.55
2022-12-12T22:46:58.636Z,61.63
2022-12-12T22:49:28.823Z,67.63
2022-12-12T22:51:59.600Z,70.55
2022-12-12T22:54:29.377Z,59.15
2022-12-12T22:56:59.358Z,70.60
2022-12-12T22:59:29.186Z,55.90
2022-12-12T23:01:59.137Z,60.85
2022-12-12T23:04:28.747Z,66.90
2022-12-12T23:06:58.907Z,60.13
2022-12-12T23:09:28.542Z,67.05
2022-12-12T23:11:58.044Z,61.20
2022-12-12T23:14:28.540Z,56.13
2022-12-12T23:16:58.342Z,67.07
2022-12-12T23:19:29.806Z,56.90
2022-12-12T23:21:59.700Z,84.67
2022-12-12T23:24:29.138Z,92.60
2022-12-12T23:26:58.736Z,103.18
2022-12-12T23:29:28.772Z,87.35
2022-12-12T23:31:59.714Z,115.10
2022-12-12T23:34:29.499Z,101.45
2022-12-12T23:36:59.738Z,95.90
2022-12-12T23:39:30.014Z,96.65
2022-12-12T23:41:59.902Z,96.65
2022-12-12T23:44:30.234Z,87.90
2022-12-12T23:46:59.595Z,87.72
2022-12-12T23:49:29.250Z,95.93
2022-12-12T23:52:00.670Z,102.13
2022-12-12T23:54:33.208Z,89.05
2022-12-12T23:57:04.058Z,71.22
2022-12-12T23:59:33.732Z,85.07
